createdAt,value
2023-02-19T00:02:57.650Z,3.68
2023-02-19T00:07:54.056Z,3.77
2023-02-19T00:12:50.843Z,3.62
2023-02-19T00:17:48.279Z,3.79
2023-02-19T00:22:44.706Z,3.78
2023-02-19T00:27:41.146Z,3.77
2023-02-19T00:32:37.524Z,3.63
2023-02-19T00:37:33.921Z,3.49
2023-02-19T00:42:30.369Z,3.55
2023-02-19T00:47:26.770Z,3.56
2023-02-19T00:52:23.190Z,3.50
2023-02-19T00:57:19.630Z,3.59
2023-02-19T01:02:16.045Z,3.65
2023-02-19T01:07:12.410Z,3.55
2023-02-19T01:12:09.154Z,3.56
2023-02-19T01:17:05.566Z,3.47
2023-02-19T01:22:01.988Z,3.58
2023-02-19T01:26:58.477Z,3.62
2023-02-19T01:31:54.987Z,3.65
2023-02-19T01:36:51.464Z,3.51
2023-02-19T01:41:47.905Z,3.40
2023-02-19T01:46:51.331Z,3.44
2023-02-19T01:51:53.607Z,3.31
2023-02-19T01:56:50.133Z,3.17
2023-02-19T02:01:46.910Z,2.93
2023-02-19T02:06:49.299Z,2.94
2023-02-19T02:11:51.825Z,2.91
2023-02-19T02:17:03.853Z,2.89
2023-02-19T02:22:19.280Z,2.93
2023-02-19T02:27:38.112Z,3.10
2023-02-19T02:32:53.346Z,3.04
2023-02-19T02:37:51.199Z,2.91
2023-02-19T02:42:47.651Z,3.00
2023-02-19T02:47:56.415Z,2.91
2023-02-19T02:53:22.015Z,2.92
2023-02-19T02:58:20.025Z,3.02
2023-02-19T03:03:21.311Z,2.82
2023-02-19T03:08:40.427Z,2.93
2023-02-19T03:13:57.718Z,2.84
2023-02-19T03:19:15.786Z,2.88
2023-02-19T03:24:31.346Z,2.98
2023-02-19T03:29:31.490Z,2.97
2023-02-19T03:34:41.443Z,2.99
2023-02-19T03:39:44.233Z,3.00
2023-02-19T03:45:10.528Z,3.05
2023-02-19T03:50:27.997Z,3.06
2023-02-19T03:55:42.272Z,2.94
2023-02-19T04:00:47.593Z,3.03
2023-02-19T04:05:58.587Z,2.99
2023-02-19T04:10:55.413Z,2.77
2023-02-19T04:15:54.992Z,2.79
2023-02-19T04:20:52.280Z,2.72
2023-02-19T04:25:53.268Z,2.77
2023-02-19T04:30:49.903Z,2.67
2023-02-19T04:35:46.404Z,2.56
2023-02-19T04:40:42.823Z,2.55
2023-02-19T04:45:39.480Z,2.51
2023-02-19T04:50:39.342Z,2.49
2023-02-19T04:55:39.423Z,2.39
2023-02-19T05:00:35.858Z,2.48
2023-02-19T05:05:32.301Z,2.36
2023-02-19T05:10:28.691Z,2.30
2023-02-19T05:15:25.101Z,2.25
2023-02-19T05:20:22.935Z,2.16
2023-02-19T05:25:19.457Z,2.12
2023-02-19T05:30:15.929Z,2.07
2023-02-19T05:35:12.386Z,2.02
2023-02-19T05:40:09.008Z,1.97
2023-02-19T05:45:05.858Z,1.94
2023-02-19T05:50:02.253Z,1.82
2023-02-19T05:54:58.634Z,1.91
2023-02-19T05:59:56.314Z,1.88
2023-02-19T06:04:52.837Z,1.85
2023-02-19T06:09:52.002Z,1.82
2023-02-19T06:14:48.478Z,1.72
2023-02-19T06:19:44.892Z,1.69
2023-02-19T06:24:41.312Z,1.65
2023-02-19T06:29:38.217Z,1.66
2023-02-19T06:34:35.236Z,1.62
2023-02-19T06:39:31.689Z,1.67
2023-02-19T06:44:28.075Z,1.63
2023-02-19T06:49:24.493Z,1.64
2023-02-19T06:54:20.946Z,1.61
2023-02-19T06:59:17.566Z,1.59
2023-02-19T07:04:14.244Z,1.59
2023-02-19T07:09:11.267Z,1.62
2023-02-19T07:14:13.752Z,1.62
2023-02-19T07:19:10.443Z,1.63
2023-02-19T07:24:07.006Z,1.66
2023-02-19T07:29:04.524Z,1.73
2023-02-19T07:34:01.044Z,1.83
2023-02-19T07:38:58.525Z,1.91
2023-02-19T07:43:55.321Z,1.96
2023-02-19T07:48:51.701Z,2.01
2023-02-19T07:53:52.197Z,2.03
2023-02-19T07:58:48.823Z,1.95
2023-02-19T08:03:45.889Z,1.93
2023-02-19T08:08:42.277Z,1.88
2023-02-19T08:13:38.655Z,1.91
2023-02-19T08:18:35.353Z,1.96
2023-02-19T08:23:31.801Z,2.03
2023-02-19T08:28:29.770Z,2.10
2023-02-19T08:33:26.154Z,2.25
2023-02-19T08:38:22.822Z,2.30
2023-02-19T08:43:19.320Z,2.37
2023-02-19T08:48:15.850Z,2.47
2023-02-19T08:53:12.288Z,2.58
2023-02-19T08:58:10.797Z,2.74
2023-02-19T09:03:07.224Z,2.92
2023-02-19T09:08:03.734Z,3.09
2023-02-19T09:13:00.756Z,3.27
2023-02-19T09:17:57.136Z,3.37
2023-02-19T09:22:58.303Z,3.53
2023-02-19T09:27:55.892Z,3.62
2023-02-19T09:32:52.390Z,3.76
2023-02-19T09:37:49.802Z,3.73
2023-02-19T09:42:46.283Z,4.11
2023-02-19T09:47:42.863Z,4.19
2023-02-19T09:53:03.697Z,4.42
2023-02-19T09:58:03.360Z,4.41
2023-02-19T10:03:06.622Z,4.61
2023-02-19T10:08:08.879Z,4.62
2023-02-19T10:13:23.923Z,5.01
2023-02-19T10:18:41.287Z,5.31
2023-02-19T10:23:40.680Z,5.57
2023-02-19T10:28:37.879Z,5.89
2023-02-19T10:33:48.858Z,5.62
2023-02-19T10:38:47.520Z,5.63
2023-02-19T10:43:52.820Z,5.73
2023-02-19T10:48:55.914Z,5.62
2023-02-19T10:54:06.406Z,5.87
2023-02-19T10:59:17.927Z,5.94
2023-02-19T11:04:17.949Z,6.30
2023-02-19T11:09:30.879Z,6.20
2023-02-19T11:14:30.312Z,6.14
2023-02-19T11:19:48.115Z,6.15
2023-02-19T11:24:49.522Z,6.13
2023-02-19T11:29:47.537Z,6.04
2023-02-19T11:34:44.372Z,6.52
2023-02-19T11:39:43.361Z,6.86
2023-02-19T11:44:39.731Z,6.90
2023-02-19T11:50:08.454Z,6.73
2023-02-19T11:55:25.327Z,7.27
2023-02-19T12:00:27.400Z,7.43
2023-02-19T12:06:01.190Z,7.46
2023-02-19T12:11:09.730Z,7.28
2023-02-19T12:16:15.199Z,7.25
2023-02-19T12:21:31.009Z,7.96
2023-02-19T12:26:29.845Z,8.10
2023-02-19T12:31:38.385Z,7.80
2023-02-19T12:36:59.505Z,7.82
2023-02-19T12:42:22.265Z,8.83
2023-02-19T12:47:24.717Z,9.76
2023-02-19T12:52:28.306Z,10.15
2023-02-19T12:57:31.326Z,10.95
2023-02-19T13:02:38.851Z,11.18
2023-02-19T13:08:17.000Z,9.54
2023-02-19T13:13:25.877Z,8.10
2023-02-19T13:18:41.134Z,8.81
2023-02-19T13:24:00.033Z,9.62
2023-02-19T13:29:31.500Z,9.10
2023-02-19T13:34:56.559Z,7.94
2023-02-19T13:39:55.132Z,7.84
2023-02-19T13:44:57.170Z,8.71
2023-02-19T13:50:06.631Z,9.04
2023-02-19T13:55:42.222Z,9.18
2023-02-19T14:00:51.817Z,9.17
2023-02-19T14:06:06.290Z,9.57
2023-02-19T14:11:02.853Z,9.87
2023-02-19T14:15:59.418Z,9.60
2023-02-19T14:21:27.806Z,9.22
2023-02-19T14:26:30.578Z,9.09
2023-02-19T14:31:29.228Z,8.83
2023-02-19T14:36:44.265Z,9.83
2023-02-19T14:41:45.133Z,10.10
2023-02-19T14:46:53.653Z,9.44
2023-02-19T14:52:01.165Z,8.62
2023-02-19T14:56:59.282Z,9.96
2023-02-19T15:01:57.111Z,8.29
2023-02-19T15:06:56.922Z,7.70
2023-02-19T15:11:54.342Z,7.27
2023-02-19T15:16:58.575Z,7.19
2023-02-19T15:21:55.511Z,7.05
2023-02-19T15:26:54.216Z,6.79
2023-02-19T15:31:55.298Z,6.62
2023-02-19T15:36:57.196Z,6.63
2023-02-19T15:42:00.792Z,6.51
2023-02-19T15:47:02.260Z,6.26
2023-02-19T15:52:07.653Z,6.15
2023-02-19T15:57:09.532Z,6.08
2023-02-19T16:02:12.189Z,5.98
2023-02-19T16:07:26.536Z,5.95
2023-02-19T16:12:25.026Z,5.94
2023-02-19T16:17:27.768Z,5.83
2023-02-19T16:22:28.316Z,5.90
2023-02-19T16:27:35.423Z,5.67
2023-02-19T16:32:31.887Z,5.64
2023-02-19T16:37:55.941Z,5.52
2023-02-19T16:42:53.921Z,5.58
2023-02-19T16:47:51.025Z,5.56
2023-02-19T16:53:05.886Z,5.50
2023-02-19T16:58:02.444Z,5.28
2023-02-19T17:03:03.147Z,5.26
2023-02-19T17:07:59.578Z,5.16
2023-02-19T17:12:56.212Z,5.11
2023-02-19T17:17:52.671Z,5.11
2023-02-19T17:22:49.198Z,5.09
2023-02-19T17:27:45.730Z,5.07
2023-02-19T17:32:42.098Z,5.08
2023-02-19T17:37:45.255Z,5.18
2023-02-19T17:42:41.679Z,5.23
2023-02-19T17:47:38.365Z,5.23
2023-02-19T17:52:34.812Z,5.25
2023-02-19T17:57:33.676Z,5.23
2023-02-19T18:02:30.319Z,5.30
2023-02-19T18:07:27.757Z,5.27
2023-02-19T18:12:26.143Z,5.27
2023-02-19T18:17:23.938Z,5.26
2023-02-19T18:22:20.451Z,5.19
2023-02-19T18:27:23.303Z,5.26
2023-02-19T18:32:21.215Z,5.16
2023-02-19T18:37:18.943Z,5.10
2023-02-19T18:42:16.246Z,5.07
2023-02-19T18:47:12.707Z,5.10
2023-02-19T18:52:09.107Z,5.04
2023-02-19T18:57:05.696Z,4.97
2023-02-19T19:02:04.966Z,5.05
2023-02-19T19:07:01.774Z,5.01
2023-02-19T19:11:58.577Z,5.01
2023-02-19T19:16:54.974Z,5.01
2023-02-19T19:21:54.957Z,4.99
2023-02-19T19:26:52.222Z,4.89
2023-02-19T19:31:49.455Z,4.74
2023-02-19T19:36:46.736Z,4.68
2023-02-19T19:41:43.155Z,4.57
2023-02-19T19:46:45.461Z,4.39
2023-02-19T19:51:41.940Z,4.34
2023-02-19T19:56:43.181Z,4.29
2023-02-19T20:01:46.811Z,4.22
2023-02-19T20:06:43.315Z,4.15
2023-02-19T20:11:51.106Z,4.10
2023-02-19T20:16:49.527Z,4.08
2023-02-19T20:21:48.322Z,4.03
2023-02-19T20:26:45.120Z,3.97
2023-02-19T20:31:48.856Z,3.99
2023-02-19T20:36:47.250Z,3.95
2023-02-19T20:41:51.023Z,3.96
2023-02-19T20:46:49.906Z,3.94
2023-02-19T20:51:48.873Z,4.04
2023-02-19T20:56:46.462Z,4.04
2023-02-19T21:01:43.716Z,4.04
2023-02-19T21:06:41.298Z,3.97
2023-02-19T21:11:37.977Z,3.99
2023-02-19T21:16:34.500Z,3.92
2023-02-19T21:21:31.731Z,3.91
2023-02-19T21:26:36.402Z,3.92
2023-02-19T21:31:42.586Z,4.00
2023-02-19T21:36:39.550Z,4.02
2023-02-19T21:41:36.382Z,4.06
2023-02-19T21:46:35.656Z,4.05
2023-02-19T21:51:39.870Z,4.06
2023-02-19T21:56:36.912Z,4.01
2023-02-19T22:01:38.426Z,3.91
2023-02-19T22:06:35.097Z,3.91
2023-02-19T22:11:31.520Z,3.93
2023-02-19T22:16:28.697Z,4.04
2023-02-19T22:21:27.916Z,4.03
2023-02-19T22:26:33.696Z,3.99
2023-02-19T22:31:32.049Z,4.02
2023-02-19T22:36:33.148Z,3.99
2023-02-19T22:41:29.931Z,4.03
2023-02-19T22:46:29.384Z,4.05
2023-02-19T22:51:26.094Z,4.08
2023-02-19T22:56:25.254Z,4.13
2023-02-19T23:01:22.116Z,4.16
2023-02-19T23:06:27.579Z,4.19
2023-02-19T23:11:29.689Z,4.14
2023-02-19T23:16:26.441Z,4.07
2023-02-19T23:21:23.350Z,4.06
2023-02-19T23:26:19.803Z,4.08
2023-02-19T23:31:17.460Z,4.10
2023-02-19T23:36:14.696Z,4.11
2023-02-19T23:41:13.474Z,4.15
2023-02-19T23:46:14.762Z,4.16
2023-02-19T23:51:11.323Z,4.25
2023-02-19T23:56:08.556Z,4.28
